createdAt,value
2023-05-22T00:01:10.511Z,14.40
2023-05-22T00:03:37.502Z,13.90
2023-05-22T00:06:06.228Z,13.80
2023-05-22T00:08:33.144Z,13.40
2023-05-22T00:11:00.098Z,13.40
2023-05-22T00:13:27.126Z,13.50
2023-05-22T00:15:54.102Z,13.50
2023-05-22T00:18:21.074Z,13.60
2023-05-22T00:20:48.384Z,13.50
2023-05-22T00:23:15.683Z,13.50
2023-05-22T00:25:42.832Z,15.50
2023-05-22T00:28:09.864Z,13.70
2023-05-22T00:30:37.249Z,14.20
2023-05-22T00:33:04.478Z,14.40
2023-05-22T00:35:31.484Z,16.20
2023-05-22T00:37:58.657Z,14.60
2023-05-22T00:40:26.438Z,13.50
2023-05-22T00:42:53.821Z,15.70
2023-05-22T00:45:22.280Z,13.50
2023-05-22T00:47:49.279Z,13.40
2023-05-22T00:50:17.079Z,13.50
2023-05-22T00:52:45.635Z,13.40
2023-05-22T00:55:13.725Z,13.40
2023-05-22T00:57:42.078Z,13.30
2023-05-22T01:00:13.326Z,13.90
2023-05-22T01:02:43.042Z,13.30
2023-05-22T01:05:13.205Z,13.30
2023-05-22T01:07:40.645Z,13.30
2023-05-22T01:10:08.271Z,14.70
2023-05-22T01:12:38.154Z,13.20
2023-05-22T01:15:47.396Z,13.20
2023-05-22T01:18:19.767Z,13.20
2023-05-22T01:20:55.212Z,13.10
2023-05-22T01:23:40.401Z,13.10
2023-05-22T01:26:22.218Z,13.10
2023-05-22T01:29:10.320Z,15.60
2023-05-22T01:31:39.504Z,13.00
2023-05-22T01:34:07.290Z,13.70
2023-05-22T01:36:37.514Z,13.00
2023-05-22T01:39:06.506Z,13.00
2023-05-22T01:41:34.143Z,13.20
2023-05-22T01:44:01.420Z,15.20
2023-05-22T01:46:29.406Z,13.40
2023-05-22T01:48:56.890Z,12.90
2023-05-22T01:51:33.563Z,13.40
2023-05-22T01:54:20.162Z,12.90
2023-05-22T01:57:41.363Z,12.90
2023-05-22T02:00:09.950Z,12.90
2023-05-22T02:02:49.156Z,12.90
2023-05-22T02:05:20.364Z,14.70
2023-05-22T02:07:47.369Z,14.70
2023-05-22T02:10:14.347Z,13.80
2023-05-22T02:12:41.316Z,14.40
2023-05-22T02:15:08.905Z,12.90
2023-05-22T02:17:42.646Z,12.90
2023-05-22T02:20:15.308Z,14.70
2023-05-22T02:22:46.527Z,14.00
2023-05-22T02:25:17.233Z,14.30
2023-05-22T02:27:46.573Z,13.40
2023-05-22T02:30:14.167Z,13.00
2023-05-22T02:32:42.371Z,12.90
2023-05-22T02:35:09.639Z,14.30
2023-05-22T02:37:36.703Z,12.90
2023-05-22T02:40:06.363Z,13.70
2023-05-22T02:42:33.624Z,12.90
2023-05-22T02:45:01.531Z,12.90
2023-05-22T02:47:28.546Z,14.40
2023-05-22T02:49:57.996Z,14.00
2023-05-22T02:52:25.154Z,13.90
2023-05-22T02:54:52.087Z,13.40
2023-05-22T02:57:20.495Z,12.80
2023-05-22T02:59:47.486Z,12.80
2023-05-22T03:02:15.479Z,13.50
2023-05-22T03:04:42.414Z,12.90
2023-05-22T03:07:09.452Z,12.90
2023-05-22T03:09:36.592Z,13.40
2023-05-22T03:12:04.978Z,12.70
2023-05-22T03:14:31.959Z,12.70
2023-05-22T03:16:59.055Z,12.70
2023-05-22T03:19:26.528Z,12.70
2023-05-22T03:21:53.612Z,13.30
2023-05-22T03:24:22.016Z,13.80
2023-05-22T03:26:48.921Z,15.30
2023-05-22T03:29:21.874Z,12.60
2023-05-22T03:31:49.033Z,13.30
2023-05-22T03:34:16.868Z,12.80
2023-05-22T03:36:46.502Z,12.70
2023-05-22T03:39:16.124Z,12.80
2023-05-22T03:41:51.860Z,13.20
2023-05-22T03:44:19.621Z,14.20
2023-05-22T03:46:46.828Z,12.90
2023-05-22T03:49:15.153Z,12.90
2023-05-22T03:51:42.045Z,13.20
2023-05-22T03:54:08.988Z,12.80
2023-05-22T03:56:35.884Z,13.60
2023-05-22T03:59:02.857Z,15.00
2023-05-22T04:01:29.952Z,12.90
2023-05-22T04:03:56.896Z,13.00
2023-05-22T04:06:23.850Z,14.80
2023-05-22T04:08:50.881Z,12.40
2023-05-22T04:11:18.585Z,13.30
2023-05-22T04:13:46.023Z,14.00
2023-05-22T04:16:13.099Z,14.80
2023-05-22T04:18:40.177Z,12.50
2023-05-22T04:21:09.905Z,13.50
2023-05-22T04:23:38.634Z,12.60
2023-05-22T04:26:08.858Z,14.40
2023-05-22T04:28:35.900Z,14.40
2023-05-22T04:31:06.485Z,13.20
2023-05-22T04:33:34.596Z,12.60
2023-05-22T04:36:02.559Z,13.10
2023-05-22T04:38:29.592Z,12.70
2023-05-22T04:40:57.099Z,12.70
2023-05-22T04:43:26.790Z,13.50
2023-05-22T04:45:54.962Z,12.40
2023-05-22T04:48:22.539Z,13.90
2023-05-22T04:50:54.363Z,13.60
2023-05-22T04:53:22.174Z,12.90
2023-05-22T04:55:49.774Z,13.00
2023-05-22T04:58:17.517Z,13.40
2023-05-22T05:00:45.779Z,13.00
2023-05-22T05:03:12.937Z,13.20
2023-05-22T05:05:41.877Z,13.80
2023-05-22T05:08:08.992Z,13.80
2023-05-22T05:10:35.967Z,15.30
2023-05-22T05:13:03.016Z,13.20
2023-05-22T05:15:32.393Z,13.20
2023-05-22T05:18:02.598Z,14.30
2023-05-22T05:20:32.197Z,15.20
2023-05-22T05:23:02.979Z,13.40
2023-05-22T05:25:30.114Z,13.50
2023-05-22T05:27:57.777Z,15.50
2023-05-22T05:30:24.842Z,13.80
2023-05-22T05:33:10.475Z,16.00
2023-05-22T05:35:43.717Z,14.10
2023-05-22T05:38:12.823Z,14.30
2023-05-22T05:40:43.964Z,14.80
2023-05-22T05:43:15.198Z,15.00
2023-05-22T05:45:43.753Z,15.50
2023-05-22T05:48:12.180Z,14.90
2023-05-22T05:50:45.997Z,17.20
2023-05-22T05:53:12.892Z,15.20
2023-05-22T05:55:44.549Z,15.50
2023-05-22T05:58:11.707Z,15.40
2023-05-22T06:00:45.045Z,17.30
2023-05-22T06:03:12.144Z,15.70
2023-05-22T06:05:54.564Z,15.80
2023-05-22T06:08:42.450Z,16.90
2023-05-22T06:11:09.594Z,16.10
2023-05-22T06:13:39.504Z,16.60
2023-05-22T06:16:07.811Z,16.60
2023-05-22T06:18:35.284Z,16.50
2023-05-22T06:21:02.341Z,19.10
2023-05-22T06:23:29.660Z,18.70
2023-05-22T06:25:57.428Z,17.20
2023-05-22T06:28:25.766Z,17.00
2023-05-22T06:30:52.955Z,17.20
2023-05-22T06:33:22.565Z,17.30
2023-05-22T06:35:50.410Z,18.90
2023-05-22T06:38:18.965Z,17.60
2023-05-22T06:40:46.144Z,17.80
2023-05-22T06:43:17.016Z,17.90
2023-05-22T06:45:49.550Z,18.10
2023-05-22T06:48:45.914Z,18.30
2023-05-22T06:51:24.546Z,19.40
2023-05-22T06:53:55.357Z,18.70
2023-05-22T06:56:27.228Z,18.90
2023-05-22T06:58:59.182Z,19.00
2023-05-22T07:01:44.802Z,19.30
2023-05-22T07:04:15.376Z,19.40
2023-05-22T07:06:52.704Z,19.50
2023-05-22T07:09:20.048Z,19.70
2023-05-22T07:11:49.077Z,19.80
2023-05-22T07:14:18.110Z,20.00
2023-05-22T07:16:46.128Z,20.20
2023-05-22T07:19:16.910Z,20.20
2023-05-22T07:21:43.917Z,20.40
2023-05-22T07:24:12.878Z,20.60
2023-05-22T07:26:46.194Z,20.70
2023-05-22T07:29:14.170Z,20.90
2023-05-22T07:31:42.439Z,21.00
2023-05-22T07:34:10.572Z,21.30
2023-05-22T07:36:38.033Z,21.20
2023-05-22T07:39:05.673Z,21.20
2023-05-22T07:41:36.835Z,21.20
2023-05-22T07:44:04.950Z,21.20
2023-05-22T07:46:37.721Z,21.40
2023-05-22T07:49:11.767Z,21.50
2023-05-22T07:51:41.704Z,21.60
2023-05-22T07:54:10.262Z,21.70
2023-05-22T07:56:44.076Z,21.80
2023-05-22T07:59:12.136Z,21.90
2023-05-22T08:01:39.996Z,21.90
2023-05-22T08:04:07.065Z,22.00
2023-05-22T08:06:36.935Z,22.00
2023-05-22T08:09:06.747Z,22.10
2023-05-22T08:11:35.057Z,22.10
2023-05-22T08:14:02.061Z,22.20
2023-05-22T08:16:30.051Z,22.30
2023-05-22T08:18:57.113Z,22.40
2023-05-22T08:21:24.104Z,22.40
2023-05-22T08:23:51.061Z,22.60
2023-05-22T08:26:18.061Z,22.70
2023-05-22T08:28:45.015Z,22.70
2023-05-22T08:31:12.566Z,22.80
2023-05-22T08:33:39.829Z,22.80
2023-05-22T08:36:06.866Z,22.90
2023-05-22T08:38:33.945Z,22.90
2023-05-22T08:41:00.912Z,23.10
2023-05-22T08:43:28.594Z,23.10
2023-05-22T08:46:05.963Z,23.20
2023-05-22T08:48:33.222Z,23.30
2023-05-22T08:51:03.842Z,23.40
2023-05-22T08:53:36.723Z,23.40
2023-05-22T08:56:05.117Z,23.50
2023-05-22T08:58:33.649Z,23.60
2023-05-22T09:01:00.695Z,23.60
2023-05-22T09:03:33.018Z,23.70
2023-05-22T09:06:01.293Z,23.70
2023-05-22T09:08:31.327Z,23.80
2023-05-22T09:10:58.422Z,23.90
2023-05-22T09:13:29.711Z,24.00
2023-05-22T09:16:15.144Z,24.20
2023-05-22T09:18:42.648Z,24.30
2023-05-22T09:21:28.721Z,24.40
2023-05-22T09:24:01.223Z,24.50
2023-05-22T09:26:29.424Z,24.60
2023-05-22T09:28:57.311Z,24.60
2023-05-22T09:31:24.327Z,24.70
2023-05-22T09:33:51.363Z,24.70
2023-05-22T09:36:18.262Z,24.80
2023-05-22T09:38:45.193Z,24.90
2023-05-22T09:41:12.032Z,24.80
2023-05-22T09:43:39.004Z,24.80
2023-05-22T09:46:05.961Z,24.90
2023-05-22T09:48:37.576Z,24.90
2023-05-22T09:51:05.520Z,24.80
2023-05-22T09:53:33.240Z,24.80
2023-05-22T09:56:00.433Z,25.00
2023-05-22T09:58:30.837Z,25.00
2023-05-22T10:00:58.374Z,25.10
2023-05-22T10:03:26.601Z,25.10
2023-05-22T10:05:57.008Z,25.20
2023-05-22T10:08:30.628Z,25.40
2023-05-22T10:10:58.704Z,25.50
2023-05-22T10:13:26.290Z,25.50
2023-05-22T10:15:53.327Z,25.60
2023-05-22T10:18:20.309Z,25.60
2023-05-22T10:20:47.378Z,25.70
2023-05-22T10:23:17.352Z,25.80
2023-05-22T10:25:45.456Z,25.90
2023-05-22T10:28:13.689Z,26.00
2023-05-22T10:30:49.690Z,26.00
2023-05-22T10:33:47.418Z,26.10
2023-05-22T10:36:20.332Z,26.10
2023-05-22T10:38:56.784Z,26.30
2023-05-22T10:41:24.020Z,26.40
2023-05-22T10:43:51.250Z,26.50
2023-05-22T10:46:18.398Z,26.60
2023-05-22T10:48:46.605Z,26.60
2023-05-22T10:51:14.636Z,26.60
2023-05-22T10:53:43.059Z,26.60
2023-05-22T10:56:16.461Z,26.60
2023-05-22T10:58:47.063Z,26.80
2023-05-22T11:01:17.050Z,26.90
2023-05-22T11:03:54.476Z,27.00
2023-05-22T11:06:36.507Z,27.00
2023-05-22T11:09:30.961Z,26.90
2023-05-22T11:12:17.954Z,27.00
2023-05-22T11:15:02.788Z,27.10
2023-05-22T11:17:33.859Z,27.20
2023-05-22T11:20:01.810Z,27.30
2023-05-22T11:22:33.334Z,27.30
2023-05-22T11:25:00.344Z,27.50
2023-05-22T11:27:27.437Z,27.60
2023-05-22T11:29:54.958Z,27.70
2023-05-22T11:32:23.649Z,27.80
2023-05-22T11:34:50.746Z,27.90
2023-05-22T11:37:19.078Z,27.90
2023-05-22T11:39:56.258Z,28.00
2023-05-22T11:42:23.128Z,28.00
2023-05-22T11:44:50.108Z,28.10
2023-05-22T11:47:17.074Z,28.20
2023-05-22T11:49:44.178Z,28.40
2023-05-22T11:52:11.173Z,28.30
2023-05-22T11:54:38.957Z,28.20
2023-05-22T11:57:08.151Z,28.10
2023-05-22T11:59:35.612Z,28.00
2023-05-22T12:02:02.568Z,28.00
2023-05-22T12:04:29.741Z,28.00
2023-05-22T12:06:56.886Z,27.90
2023-05-22T12:09:24.076Z,27.70
2023-05-22T12:11:51.078Z,27.40
2023-05-22T12:14:18.302Z,27.20
2023-05-22T12:16:45.416Z,27.10
2023-05-22T12:19:15.066Z,27.20
2023-05-22T12:21:42.293Z,27.50
2023-05-22T12:24:10.910Z,27.90
2023-05-22T12:26:38.082Z,28.20
2023-05-22T12:29:07.406Z,28.00
2023-05-22T12:31:36.332Z,27.90
2023-05-22T12:34:05.786Z,27.70
2023-05-22T12:36:39.732Z,27.60
2023-05-22T12:39:11.129Z,27.70
2023-05-22T12:41:38.641Z,27.90
2023-05-22T12:44:06.177Z,28.10
2023-05-22T12:46:33.713Z,28.40
2023-05-22T12:49:01.067Z,28.60
2023-05-22T12:51:29.844Z,29.00
2023-05-22T12:53:57.455Z,29.20
2023-05-22T12:56:24.421Z,29.40
2023-05-22T12:58:51.543Z,29.50
2023-05-22T13:01:18.517Z,29.60
2023-05-22T13:03:46.290Z,29.70
2023-05-22T13:06:13.409Z,29.90
2023-05-22T13:08:40.327Z,30.00
2023-05-22T13:11:07.248Z,30.10
2023-05-22T13:13:34.230Z,30.10
2023-05-22T13:16:01.248Z,30.30
2023-05-22T13:18:28.168Z,30.40
2023-05-22T13:20:57.545Z,30.50
2023-05-22T13:23:24.507Z,30.50
2023-05-22T13:25:51.463Z,30.50
2023-05-22T13:28:18.395Z,30.50
2023-05-22T13:30:45.499Z,30.50
2023-05-22T13:33:13.572Z,30.50
2023-05-22T13:35:40.673Z,30.50
2023-05-22T13:38:07.874Z,30.40
2023-05-22T13:40:34.868Z,30.40
2023-05-22T13:43:01.831Z,30.50
2023-05-22T13:45:28.686Z,30.40
2023-05-22T13:47:55.958Z,30.20
2023-05-22T13:50:22.993Z,29.80
2023-05-22T13:52:49.966Z,29.40
2023-05-22T13:55:16.997Z,29.10
2023-05-22T13:57:43.909Z,29.00
2023-05-22T14:00:11.334Z,29.00
2023-05-22T14:02:38.613Z,28.80
2023-05-22T14:05:06.043Z,28.80
2023-05-22T14:07:32.938Z,28.60
2023-05-22T14:10:01.141Z,28.50
2023-05-22T14:12:28.658Z,28.60
2023-05-22T14:14:55.676Z,28.60
2023-05-22T14:17:22.596Z,28.50
2023-05-22T14:19:49.549Z,28.20
2023-05-22T14:22:16.437Z,27.80
2023-05-22T14:24:43.397Z,27.40
2023-05-22T14:27:10.316Z,27.10
2023-05-22T14:29:39.742Z,26.90
2023-05-22T14:32:07.133Z,27.00
2023-05-22T14:34:34.099Z,27.30
2023-05-22T14:37:01.080Z,27.70
2023-05-22T14:39:28.075Z,28.20
2023-05-22T14:41:55.009Z,28.50
2023-05-22T14:44:25.022Z,28.80
2023-05-22T14:46:53.534Z,29.20
2023-05-22T14:49:20.545Z,29.50
2023-05-22T14:51:48.362Z,29.70
2023-05-22T14:54:18.010Z,29.90
2023-05-22T14:56:45.481Z,29.90
2023-05-22T14:59:12.411Z,29.90
2023-05-22T15:01:39.530Z,29.60
2023-05-22T15:04:07.998Z,29.10
2023-05-22T15:06:35.641Z,28.80
2023-05-22T15:09:02.524Z,28.70
2023-05-22T15:11:29.422Z,28.70
2023-05-22T15:13:56.425Z,28.90
2023-05-22T15:16:23.512Z,28.70
2023-05-22T15:18:50.697Z,28.50
2023-05-22T15:21:17.824Z,28.40
2023-05-22T15:23:44.756Z,28.40
2023-05-22T15:26:11.709Z,28.60
2023-05-22T15:28:38.702Z,28.80
2023-05-22T15:31:05.715Z,28.70
2023-05-22T15:33:34.075Z,28.50
2023-05-22T15:36:01.030Z,28.40
2023-05-22T15:38:28.781Z,28.00
2023-05-22T15:40:55.800Z,27.90
2023-05-22T15:43:24.337Z,28.20
2023-05-22T15:45:53.604Z,28.50
2023-05-22T15:48:20.903Z,28.70
2023-05-22T15:50:47.774Z,28.70
2023-05-22T15:53:14.663Z,28.60
2023-05-22T15:55:41.753Z,28.30
2023-05-22T15:58:08.825Z,27.90
2023-05-22T16:00:40.992Z,27.70
2023-05-22T16:03:11.387Z,28.00
2023-05-22T16:05:41.775Z,28.40
2023-05-22T16:08:11.519Z,28.70
2023-05-22T16:10:41.530Z,29.30
2023-05-22T16:13:10.663Z,29.70
2023-05-22T16:15:39.847Z,29.80
2023-05-22T16:18:07.385Z,29.90
2023-05-22T16:20:34.885Z,30.10
2023-05-22T16:23:01.834Z,31.60
2023-05-22T16:25:28.765Z,30.20
2023-05-22T16:27:55.739Z,30.00
2023-05-22T16:30:22.651Z,29.80
2023-05-22T16:32:49.616Z,29.50
2023-05-22T16:35:16.940Z,30.00
2023-05-22T16:37:43.858Z,29.20
2023-05-22T16:40:11.062Z,29.30
2023-05-22T16:42:39.206Z,30.80
2023-05-22T16:45:06.708Z,29.30
2023-05-22T16:47:33.580Z,29.20
2023-05-22T16:50:00.567Z,29.00
2023-05-22T16:52:27.611Z,28.70
2023-05-22T16:54:54.602Z,28.50
2023-05-22T16:57:22.671Z,28.50
2023-05-22T16:59:50.063Z,28.50
2023-05-22T17:02:17.033Z,28.20
2023-05-22T17:04:43.995Z,27.80
2023-05-22T17:07:10.953Z,27.30
2023-05-22T17:09:38.186Z,26.90
2023-05-22T17:12:05.504Z,26.50
2023-05-22T17:14:34.300Z,26.30
2023-05-22T17:17:01.311Z,26.00
2023-05-22T17:19:28.237Z,25.70
2023-05-22T17:21:56.706Z,25.40
2023-05-22T17:24:23.698Z,25.20
2023-05-22T17:26:50.785Z,25.10
2023-05-22T17:29:17.665Z,24.90
2023-05-22T17:31:44.648Z,24.70
2023-05-22T17:34:11.611Z,24.40
2023-05-22T17:36:38.524Z,24.10
2023-05-22T17:39:05.398Z,23.80
2023-05-22T17:41:32.328Z,23.50
2023-05-22T17:44:01.439Z,23.30
2023-05-22T17:46:28.389Z,23.10
2023-05-22T17:48:55.504Z,22.90
2023-05-22T17:51:22.680Z,22.80
2023-05-22T17:53:56.260Z,22.60
2023-05-22T17:56:23.593Z,22.50
2023-05-22T17:58:50.873Z,22.30
2023-05-22T18:01:18.221Z,22.20
2023-05-22T18:03:46.037Z,22.10
2023-05-22T18:06:13.308Z,22.00
2023-05-22T18:08:40.230Z,21.90
2023-05-22T18:11:07.137Z,21.80
2023-05-22T18:13:34.202Z,21.40
2023-05-22T18:16:01.424Z,21.70
2023-05-22T18:18:28.376Z,22.70
2023-05-22T18:20:55.862Z,21.40
2023-05-22T18:23:22.879Z,21.30
2023-05-22T18:25:49.830Z,21.10
2023-05-22T18:28:16.813Z,20.90
2023-05-22T18:30:44.950Z,20.80
2023-05-22T18:33:12.150Z,20.60
2023-05-22T18:35:39.081Z,20.40
2023-05-22T18:38:06.484Z,20.20
2023-05-22T18:40:33.430Z,20.00
2023-05-22T18:43:00.335Z,19.80
2023-05-22T18:45:27.207Z,19.70
2023-05-22T18:47:54.234Z,19.60
2023-05-22T18:50:23.424Z,19.40
2023-05-22T18:52:50.765Z,19.30
2023-05-22T18:55:17.698Z,19.10
2023-05-22T18:57:44.631Z,21.30
2023-05-22T19:00:11.758Z,19.00
2023-05-22T19:02:39.102Z,18.80
2023-05-22T19:05:07.088Z,18.70
2023-05-22T19:07:34.215Z,18.60
2023-05-22T19:10:01.357Z,20.70
2023-05-22T19:12:31.703Z,17.50
2023-05-22T19:15:00.038Z,18.30
2023-05-22T19:17:27.061Z,18.20
2023-05-22T19:19:53.962Z,18.40
2023-05-22T19:22:21.031Z,20.40
2023-05-22T19:24:47.897Z,18.00
2023-05-22T19:27:14.817Z,19.00
2023-05-22T19:29:41.776Z,17.90
2023-05-22T19:32:08.711Z,19.50
2023-05-22T19:34:35.738Z,17.80
2023-05-22T19:37:02.801Z,18.90
2023-05-22T19:39:29.746Z,17.60
2023-05-22T19:41:56.643Z,19.90
2023-05-22T19:44:23.514Z,19.70
2023-05-22T19:46:50.488Z,17.40
2023-05-22T19:49:17.413Z,17.30
2023-05-22T19:51:44.355Z,19.40
2023-05-22T19:54:11.378Z,17.20
2023-05-22T19:56:38.331Z,17.20
2023-05-22T19:59:05.294Z,18.20
2023-05-22T20:01:32.269Z,17.60
2023-05-22T20:04:01.096Z,18.80
2023-05-22T20:06:31.529Z,16.90
2023-05-22T20:08:58.529Z,16.90
2023-05-22T20:11:26.414Z,19.20
2023-05-22T20:13:54.574Z,16.70
2023-05-22T20:16:21.680Z,16.60
2023-05-22T20:18:48.949Z,16.50
2023-05-22T20:21:15.879Z,16.60
2023-05-22T20:23:44.473Z,16.70
2023-05-22T20:26:11.443Z,16.40
2023-05-22T20:28:38.466Z,18.60
2023-05-22T20:31:06.060Z,18.10
2023-05-22T20:33:33.317Z,16.30
2023-05-22T20:36:01.846Z,16.30
2023-05-22T20:38:29.349Z,17.40
2023-05-22T20:40:58.508Z,18.10
2023-05-22T20:43:26.262Z,16.00
2023-05-22T20:45:54.237Z,17.40
2023-05-22T20:48:21.288Z,16.10
2023-05-22T20:50:48.575Z,17.10
2023-05-22T20:53:15.645Z,16.00
2023-05-22T20:55:42.918Z,16.00
2023-05-22T20:58:09.872Z,16.90
2023-05-22T21:00:36.761Z,18.20
2023-05-22T21:03:03.771Z,15.90
2023-05-22T21:05:30.852Z,15.90
2023-05-22T21:07:58.136Z,16.60
2023-05-22T21:10:25.061Z,15.90
2023-05-22T21:12:51.985Z,15.70
2023-05-22T21:15:19.290Z,15.70
2023-05-22T21:17:46.739Z,15.70
2023-05-22T21:20:14.708Z,15.60
2023-05-22T21:22:41.656Z,17.10
2023-05-22T21:25:09.308Z,15.50
2023-05-22T21:27:36.233Z,15.50
2023-05-22T21:30:03.251Z,17.00
2023-05-22T21:32:30.231Z,15.40
2023-05-22T21:34:57.136Z,15.50
2023-05-22T21:37:24.092Z,16.20
2023-05-22T21:39:51.013Z,15.40
2023-05-22T21:42:18.286Z,17.10
2023-05-22T21:44:45.204Z,15.40
2023-05-22T21:47:12.075Z,15.30
2023-05-22T21:49:39.894Z,16.20
2023-05-22T21:52:06.918Z,15.70
2023-05-22T21:54:33.852Z,17.20
2023-05-22T21:57:00.871Z,17.20
2023-05-22T21:59:27.845Z,17.30
2023-05-22T22:01:54.834Z,16.10
2023-05-22T22:04:21.796Z,16.10
2023-05-22T22:06:48.758Z,15.20
2023-05-22T22:09:15.631Z,16.90
2023-05-22T22:11:42.475Z,16.00
2023-05-22T22:14:09.452Z,16.80
2023-05-22T22:16:36.434Z,15.00
2023-05-22T22:19:03.460Z,14.90
2023-05-22T22:21:31.609Z,16.60
2023-05-22T22:23:58.521Z,15.40
2023-05-22T22:26:25.411Z,14.90
2023-05-22T22:28:52.648Z,15.70
2023-05-22T22:31:19.659Z,15.00
2023-05-22T22:33:46.614Z,14.80
2023-05-22T22:36:13.595Z,14.80
2023-05-22T22:38:40.453Z,16.80
2023-05-22T22:41:09.375Z,14.80
2023-05-22T22:43:36.720Z,15.70
2023-05-22T22:46:03.696Z,15.00
2023-05-22T22:48:30.685Z,14.80
2023-05-22T22:50:58.231Z,14.90
2023-05-22T22:53:25.172Z,14.60
2023-05-22T22:55:56.779Z,16.00
2023-05-22T22:58:23.833Z,14.60
2023-05-22T23:00:50.765Z,15.00
2023-05-22T23:03:17.711Z,15.90
2023-05-22T23:05:44.930Z,15.20
2023-05-22T23:08:12.350Z,15.50
2023-05-22T23:10:39.259Z,15.30
2023-05-22T23:13:06.755Z,14.50
2023-05-22T23:15:33.959Z,16.80
2023-05-22T23:18:00.967Z,14.40
2023-05-22T23:20:27.878Z,15.40
2023-05-22T23:22:54.805Z,14.40
2023-05-22T23:25:21.779Z,16.10
2023-05-22T23:27:48.706Z,15.00
2023-05-22T23:30:15.759Z,14.30
2023-05-22T23:32:42.749Z,14.30
2023-05-22T23:35:10.928Z,15.00
2023-05-22T23:37:38.118Z,14.30
2023-05-22T23:40:06.714Z,14.20
2023-05-22T23:42:35.381Z,14.20
2023-05-22T23:45:05.934Z,16.40
2023-05-22T23:47:32.862Z,14.10
2023-05-22T23:50:00.230Z,14.10
2023-05-22T23:52:27.668Z,15.30
2023-05-22T23:54:54.619Z,14.30
2023-05-22T23:57:21.583Z,15.90
2023-05-22T23:59:48.505Z,16.40
